Saint Lucie County International, FL

8:23 PM EDT on April 25, 2015 (GMT -0400)
Saint Lucie County International | | Change Station
CLOSE
Current Station
Airport
Location: Ft Pierce,
Elevation: 23 ft
Nearby Weather Stations

Elev 23 ft 27.50 °N, 80.38 °W | Updated 30 minutes ago

Mostly Cloudy
Mostly Cloudy
83 °F
Feels Like 90 °F
N
0
Wind Variable Wind from North

Today
High -- | Low -- °F
--% Chance of Precip.
Yesterday
High -- | Low -- °F
Precip. -- in
6:47 AM 7:51 PM
Waxing Crescent, 50% visible
Pressure 29.82 in
Visibility 10.0 miles
Clouds Mostly Cloudy 6000 ft
Heat Index 90 °F
Dew Point 75 °F
Humidity 77%
Rainfall 0.01 in
Snow Depth Not available.
UV 0 out of 12
Pollen 7.60 out of 12
Air Quality Not available.
Flu Activity Local Activity
METAR KFPR 252353Z AUTO 00000KT 10SM BKN060 28/24 A2982 RMK AO2 SLP098 60001 T02830239 10333 20283 56003 TSNO

More Conditions Fewer Conditions

Pressure 29.82 in
Visibility 10.0 miles
Clouds Mostly Cloudy 6000 ft
Heat Index 90 °F
Dew Point 75 °F
Humidity 77%
Rainfall 0.01 in
Snow Depth Not available.
UV 0 out of 12
Pollen 7.60 out of 12
Air Quality Not available.
Flu Activity Local Activity
METAR KFPR 252353Z AUTO 00000KT 10SM BKN060 28/24 A2982 RMK AO2 SLP098 60001 T02830239 10333 20283 56003 TSNO

More Conditions Fewer Conditions

10-Day Weather Forecast

Almanac

Astronomy

Apr. 25, 2015 Rise Set
Actual Time
Civil Twilight
Nautical Twilight
Astronomical Twilight
Moon
Length of Visible Light
Length of Day
Tomorrow will be .
, % of the Moon is Illuminated

Today's Extremes

State Highs State Lows

Community

WunderPhotos

Upload Photos

1,816,856 photos uploaded!

WunderBlogs® & News

Nearby

Air Quality

  Air Quality AQ Index Pollutant
Not available.

Snow Depth

Station Depth Elevation

Earthquake Activity

City Distance Mag. Time & Date
Minimum magnitude displayed is 2.5.

Coastal Water Temperatures

Place Temperature

Stations

Nearby Weather Stations

Station Location Temp. Windchill Dew Point Humidity Wind Precip. Elev Updated Type